Time;durP1;ratioP1;P1;durP2;ratioP2;P2;SDS_P1;SDS_P2;PMS_P1;PMS_P2;Temp;Humidity;BMP_temperature;BMP_pressure;BME280_temperature;BME280_humidity;BME280_pressure;Samples;Min_cycle;Max_cycle;Signal;HPM_P1;HPM_P2
2022/10/23 00:00:50;;;;;;;;;;;;;;;6.61;100.00;99526.47;4998175;28;20396;-86
2022/10/23 00:03:15;;;;;;;;;;;;;;;6.60;100.00;99524.72;5013760;28;20496;-86
2022/10/23 00:05:41;;;;;;;;;;;;;;;6.57;100.00;99530.09;5001001;28;19932;-88
2022/10/23 00:08:06;;;;;;;;;;;;;;;6.48;100.00;99515.44;5000797;28;19995;-86
2022/10/23 00:10:31;;;;;;;;;;;;;;;6.49;100.00;99508.41;5000140;28;19921;-88
2022/10/23 00:13:04;;;;;;;;;;;;;;;6.50;100.00;99512.75;5021765;28;19963;-91
2022/10/23 00:15:29;;;;;;;;;;;;;;;6.53;100.00;99512.69;5017722;28;19932;-86
2022/10/23 00:17:55;;;;;;;;;;;;;;;6.52;100.00;99513.56;5017092;28;19922;-86
2022/10/23 00:20:20;;;;;;;;;;;;;;;6.48;100.00;99514.59;5001231;28;19927;-85
2022/10/23 00:22:46;;;;;;;;;;;;;;;6.50;100.00;99512.75;5020317;28;20265;-87
2022/10/23 00:25:11;;;;;;;;;;;;;;;6.46;100.00;99517.28;5013055;28;20295;-84
2022/10/23 00:27:36;;;;;;;;;;;;;;;6.42;100.00;99523.53;5020809;28;20392;-85
2022/10/23 00:30:03;;;;;;;;;;;;;;;6.46;100.00;99516.38;5018482;28;19932;-85
2022/10/23 00:32:28;;;;;;;;;;;;;;;6.45;100.00;99517.31;5019009;28;20008;-85
2022/10/23 00:34:54;;;;;;;;;;;;;;;6.44;100.00;99519.06;4994789;28;20020;-85
2022/10/23 00:37:19;;;;;;;;;;;;;;;6.45;100.00;99519.94;5018351;28;19925;-89
2022/10/23 00:39:44;;;;;;;;;;;;;;;6.47;100.00;99515.50;5019653;28;20004;-84
2022/10/23 00:42:12;;;;;;;;;;;;;;;6.45;100.00;99510.28;5018521;28;19922;-84
2022/10/23 00:44:40;;;;;;;;;;;;;;;6.44;100.00;99508.53;5019865;28;19972;-85
2022/10/23 00:47:06;;;;;;;;;;;;;;;6.41;100.00;99505.13;4989676;28;19917;-87
2022/10/23 00:49:31;;;;;;;;;;;;;;;6.41;100.00;99503.38;5000123;28;19925;-86
2022/10/23 00:51:59;;;;;;;;;;;;;;;6.39;100.00;99504.34;5020348;28;19929;-86
2022/10/23 00:54:26;;;;;;;;;;;;;;;6.40;100.00;99508.66;5003572;28;20360;-87
2022/10/23 00:57:04;;;;;;;;;;;;;;;6.39;100.00;99504.34;5018527;28;20000;-87
2022/10/23 00:59:30;;;;;;;;;;;;;;;6.37;100.00;99507.00;4990889;28;20020;-88
2022/10/23 01:01:56;;;;;;;;;;;;;;;6.37;100.00;99504.38;4990398;28;20327;-85
2022/10/23 01:04:21;;;;;;;;;;;;;;;6.41;100.00;99503.38;5019875;28;19943;-86
2022/10/23 01:07:05;;;;;;;;;;;;;;;6.40;100.00;99503.41;4989526;28;20034;-87
2022/10/23 01:09:42;;;;;;;;;;;;;;;6.38;100.00;99497.34;5002114;28;19928;-88
2022/10/23 01:12:27;;;;;;;;;;;;;;;6.39;100.00;99501.72;4999855;28;19924;-88
2022/10/23 01:14:57;;;;;;;;;;;;;;;6.36;100.00;99495.59;5000776;28;19932;-86
2022/10/23 01:17:28;;;;;;;;;;;;;;;6.40;100.00;99500.78;4995181;28;20012;-86
2022/10/23 01:20:12;;;;;;;;;;;;;;;6.40;100.00;99495.50;5000083;28;20403;-86
2022/10/23 03:32:32;;;;;;;;;;;;;;;6.31;100.00;99389.63;5044381;28;19929;-86
2022/10/23 03:34:58;;;;;;;;;;;;;;;6.30;100.00;99382.66;5051322;28;20007;-85
2022/10/23 03:37:23;;;;;;;;;;;;;;;6.31;100.00;99386.16;5051185;28;19925;-85
2022/10/23 03:39:48;;;;;;;;;;;;;;;6.29;100.00;99382.72;5051361;28;19917;-86
2022/10/23 03:42:16;;;;;;;;;;;;;;;6.34;100.00;99375.53;5051737;28;19970;-85
2022/10/23 03:44:41;;;;;;;;;;;;;;;6.36;100.00;99377.19;5051299;28;19951;-87
2022/10/23 03:47:08;;;;;;;;;;;;;;;6.38;100.00;99381.53;5050133;28;19920;-83
2022/10/23 03:49:34;;;;;;;;;;;;;;;6.39;100.00;99385.91;5050618;28;19921;-83
2022/10/23 03:51:59;;;;;;;;;;;;;;;6.34;100.00;99384.28;5051222;28;19992;-83
2022/10/23 03:54:26;;;;;;;;;;;;;;;6.36;100.00;99378.97;5051210;28;20318;-82
2022/10/23 03:56:51;;;;;;;;;;;;;;;6.44;100.00;99365.56;5051086;28;19943;-83
2022/10/23 03:59:16;;;;;;;;;;;;;;;6.43;100.00;99358.56;5034731;28;19921;-84
2022/10/23 04:01:42;;;;;;;;;;;;;;;6.41;100.00;99363.03;5053605;28;20280;-84
2022/10/23 04:04:07;;;;;;;;;;;;;;;6.44;100.00;99370.81;5037002;28;19968;-83
2022/10/23 04:06:32;;;;;;;;;;;;;;;6.35;100.00;99378.09;5054859;28;19939;-84
2022/10/23 04:08:58;;;;;;;;;;;;;;;6.41;100.00;99378.81;5054818;28;19916;-83
2022/10/23 04:11:23;;;;;;;;;;;;;;;6.38;100.00;99371.00;5054735;28;19921;-84
2022/10/23 04:13:48;;;;;;;;;;;;;;;6.37;100.00;99364.91;5036813;28;19932;-85
2022/10/23 04:16:14;;;;;;;;;;;;;;;6.38;100.00;99365.75;5053416;28;19917;-84
2022/10/23 04:18:40;;;;;;;;;;;;;;;6.41;100.00;99357.75;5054319;28;19921;-85
2022/10/23 04:21:05;;;;;;;;;;;;;;;6.35;100.00;99362.31;5035858;28;20437;-85
2022/10/23 04:23:30;;;;;;;;;;;;;;;6.43;100.00;99353.31;5036659;28;19960;-85
2022/10/23 04:25:56;;;;;;;;;;;;;;;6.39;100.00;99357.81;5036614;28;20382;-85
2022/10/23 04:28:22;;;;;;;;;;;;;;;6.45;100.00;99346.25;5036424;28;19917;-85
2022/10/23 04:30:47;;;;;;;;;;;;;;;6.41;100.00;99336.72;5035141;28;20015;-85
2022/10/23 04:33:12;;;;;;;;;;;;;;;6.43;100.00;99332.25;5036329;28;19974;-84
2022/10/23 04:35:37;;;;;;;;;;;;;;;6.48;100.00;99335.59;5036209;28;19927;-84
2022/10/23 04:38:03;;;;;;;;;;;;;;;6.44;100.00;99328.72;5054252;28;19921;-81
2022/10/23 04:40:28;;;;;;;;;;;;;;;6.44;100.00;99333.97;5054118;28;19928;-84
2022/10/23 04:42:53;;;;;;;;;;;;;;;6.48;100.00;99328.56;5036304;28;19917;-83
2022/10/23 04:45:19;;;;;;;;;;;;;;;6.40;100.00;99327.06;5034981;28;20381;-84
2022/10/23 04:47:44;;;;;;;;;;;;;;;6.44;100.00;99333.97;5053727;28;20113;-84
2022/10/23 04:50:09;;;;;;;;;;;;;;;6.45;100.00;99331.28;5054012;28;19956;-84
2022/10/23 04:52:34;;;;;;;;;;;;;;;6.43;100.00;99325.22;5035892;28;19971;-84
2022/10/23 04:55:00;;;;;;;;;;;;;;;6.45;100.00;99322.53;5053859;28;19917;-84
2022/10/23 04:57:25;;;;;;;;;;;;;;;6.46;100.00;99313.72;5053812;28;19917;-83
2022/10/23 04:59:50;;;;;;;;;;;;;;;6.48;100.00;99314.56;5053807;28;20423;-84
2022/10/23 05:02:15;;;;;;;;;;;;;;;6.52;100.00;99316.16;5034699;28;19923;-85
2022/10/23 05:04:41;;;;;;;;;;;;;;;6.52;100.00;99313.53;5053736;28;20352;-84
2022/10/23 05:07:06;;;;;;;;;;;;;;;6.58;100.00;99312.47;5053667;28;19923;-83
2022/10/23 05:09:31;;;;;;;;;;;;;;;6.61;100.00;99318.47;5035958;28;19923;-83
2022/10/23 05:11:57;;;;;;;;;;;;;;;6.57;100.00;99316.84;5034701;28;20008;-85
2022/10/23 05:14:22;;;;;;;;;;;;;;;6.62;100.00;99312.31;5035694;28;19917;-86
2022/10/23 12:48:53;;;;;;;;;;;;;;;6.50;100.00;98933.72;5584057;23;20315;-94
2022/10/23 12:51:34;;;;;;;;;;;;;;;6.54;100.00;98932.66;5026827;28;19925;-95
2022/10/23 12:54:01;;;;;;;;;;;;;;;6.48;100.00;98939.03;5048267;28;19913;-87
2022/10/23 12:56:27;;;;;;;;;;;;;;;6.49;100.00;98929.34;5044203;28;19917;-93
2022/10/23 12:58:54;;;;;;;;;;;;;;;6.40;100.00;98938.50;5028965;28;20359;-91
2022/10/23 13:01:24;;;;;;;;;;;;;;;6.47;100.00;98928.56;5050272;28;19921;-88
2022/10/23 13:03:50;;;;;;;;;;;;;;;6.45;100.00;98926.00;5026494;28;19917;-92
2022/10/23 13:06:15;;;;;;;;;;;;;;;6.40;100.00;98921.81;5028183;28;19979;-89
2022/10/23 13:08:42;;;;;;;;;;;;;;;6.36;100.00;98919.31;5047019;28;19971;-93
2022/10/23 13:11:12;;;;;;;;;;;;;;;6.41;100.00;98913.03;5026781;28;19956;-93
2022/10/23 13:13:39;;;;;;;;;;;;;;;6.36;100.00;98910.56;5026647;28;19924;-93
2022/10/23 13:16:12;;;;;;;;;;;;;;;6.31;100.00;98899.38;5023314;28;19916;-92
2022/10/23 13:18:41;;;;;;;;;;;;;;;6.30;100.00;98890.63;5025546;28;19916;-90
2022/10/23 13:21:20;;;;;;;;;;;;;;;6.31;100.00;98891.47;5029547;28;19928;-91
2022/10/23 13:23:45;;;;;;;;;;;;;;;6.29;100.00;98893.31;5027409;28;19971;-90
2022/10/23 13:26:20;;;;;;;;;;;;;;;6.27;100.00;98890.75;5028340;28;19921;-89
2022/10/23 13:28:45;;;;;;;;;;;;;;;6.28;100.00;98888.97;5027295;28;19924;-89
2022/10/23 13:31:11;;;;;;;;;;;;;;;6.31;100.00;98888.84;5026102;28;19917;-89
2022/10/23 13:33:43;;;;;;;;;;;;;;;6.41;100.00;98878.81;5026220;28;19941;-91
2022/10/23 13:36:12;;;;;;;;;;;;;;;6.36;100.00;98886.88;5045366;28;19925;-92
2022/10/23 13:38:38;;;;;;;;;;;;;;;6.41;100.00;98860.38;5041425;28;19921;-93
2022/10/23 13:41:05;;;;;;;;;;;;;;;6.36;100.00;98850.91;5028805;28;19917;-93
2022/10/23 13:43:31;;;;;;;;;;;;;;;6.40;100.00;98853.41;5046520;28;19956;-93
2022/10/23 13:45:57;;;;;;;;;;;;;;;6.27;100.00;98863.56;5034821;28;19917;-94
2022/10/23 13:48:22;;;;;;;;;;;;;;;6.40;100.00;98864.81;5047317;28;20265;-93
2022/10/23 13:50:48;;;;;;;;;;;;;;;6.38;100.00;98865.78;5026984;28;19937;-91
2022/10/23 13:53:16;;;;;;;;;;;;;;;6.28;100.00;98866.13;5030574;28;19924;-92
2022/10/23 13:55:42;;;;;;;;;;;;;;;6.29;100.00;98873.13;5025064;28;19917;-94
2022/10/23 13:58:08;;;;;;;;;;;;;;;6.36;100.00;98868.47;5027145;28;20006;-93
2022/10/23 14:00:34;;;;;;;;;;;;;;;6.33;100.00;98873.84;5025448;28;19923;-90
2022/10/23 14:03:03;;;;;;;;;;;;;;;6.36;100.00;98871.09;5027125;28;20011;-91
2022/10/23 14:05:28;;;;;;;;;;;;;;;6.36;100.00;98860.56;5034251;28;19917;-90
2022/10/23 14:07:54;;;;;;;;;;;;;;;6.28;100.00;98865.28;5025039;28;19967;-92
2022/10/23 14:10:19;;;;;;;;;;;;;;;6.31;100.00;98878.31;5045700;28;19979;-94
2022/10/23 14:12:45;;;;;;;;;;;;;;;6.36;100.00;98890.38;5030123;28;19963;-93
2022/10/23 14:15:10;;;;;;;;;;;;;;;6.31;100.00;98886.22;5028944;28;19919;-93
2022/10/23 14:17:36;;;;;;;;;;;;;;;6.38;100.00;98892.94;5024143;28;19921;-91
2022/10/23 14:20:03;;;;;;;;;;;;;;;6.30;100.00;98895.91;5026152;28;20282;-90
2022/10/23 14:22:28;;;;;;;;;;;;;;;6.33;100.00;98892.25;5023619;28;20014;-94
2022/10/23 14:27:56;;;;;;;;;;;;;;;6.32;100.00;98883.53;5039938;28;20292;-91
2022/10/23 14:30:21;;;;;;;;;;;;;;;6.28;100.00;98881.06;5026022;28;19920;-93
2022/10/23 14:32:51;;;;;;;;;;;;;;;6.27;100.00;98872.34;5025130;28;20344;-91
2022/10/23 14:35:16;;;;;;;;;;;;;;;6.31;100.00;98862.53;5044750;28;20015;-93
2022/10/23 14:37:41;;;;;;;;;;;;;;;6.48;100.00;98848.72;5026720;28;20337;-89
2022/10/23 14:40:07;;;;;;;;;;;;;;;6.38;100.00;98839.47;5025189;28;20001;-93
2022/10/23 14:42:33;;;;;;;;;;;;;;;6.31;100.00;98844.97;5029316;28;19917;-94
2022/10/23 14:45:09;;;;;;;;;;;;;;;6.33;100.00;98837.00;5029521;28;19928;-94
2022/10/23 14:47:34;;;;;;;;;;;;;;;6.24;100.00;98838.25;5025372;28;19924;-92
2022/10/23 14:50:02;;;;;;;;;;;;;;;6.24;100.00;98835.63;5049688;28;19921;-91
2022/10/23 14:52:28;;;;;;;;;;;;;;;6.26;100.00;98838.19;5025546;28;20455;-90
2022/10/23 14:55:01;;;;;;;;;;;;;;;6.25;100.00;98842.56;5044809;28;19959;-93
2022/10/23 14:57:26;;;;;;;;;;;;;;;6.31;100.00;98830.97;5052184;28;20461;-94
2022/10/23 14:59:52;;;;;;;;;;;;;;;6.25;100.00;98834.69;5052561;23;19918;-92
2022/10/23 15:02:17;;;;;;;;;;;;;;;6.35;100.00;98827.28;5003609;28;20530;-94
2022/10/23 15:04:51;;;;;;;;;;;;;;;6.35;100.00;98815.00;5019214;28;19917;-94
2022/10/23 15:07:16;;;;;;;;;;;;;;;6.29;100.00;98809.97;5018818;23;19926;-93
2022/10/23 15:09:42;;;;;;;;;;;;;;;6.26;100.00;98806.63;5031042;28;19975;-94
2022/10/23 15:12:07;;;;;;;;;;;;;;;6.26;100.00;98812.72;5029446;28;19965;-95
2022/10/23 15:14:33;;;;;;;;;;;;;;;6.29;100.00;98817.03;5027855;28;19927;-96
2022/10/23 15:16:58;;;;;;;;;;;;;;;6.30;100.00;98821.34;5028358;28;19917;-92
2022/10/23 15:19:24;;;;;;;;;;;;;;;6.27;100.00;98821.47;5037969;28;20325;-90
2022/10/23 15:21:50;;;;;;;;;;;;;;;6.22;100.00;98815.53;5045485;28;19916;-93
2022/10/23 15:24:16;;;;;;;;;;;;;;;6.21;100.00;98804.19;5104982;23;20019;-93
2022/10/23 15:26:44;;;;;;;;;;;;;;;6.15;100.00;98814.94;5041904;28;20415;-93
2022/10/23 15:29:10;;;;;;;;;;;;;;;6.23;100.00;98815.50;5042560;28;19920;-94
2022/10/23 15:31:41;;;;;;;;;;;;;;;6.24;100.00;98809.31;5043203;28;20004;-92
2022/10/23 15:34:33;;;;;;;;;;;;;;;6.21;100.00;98814.69;5024251;28;19923;-96
2022/10/23 15:36:58;;;;;;;;;;;;;;;6.21;100.00;98816.44;5034700;28;19923;-90
2022/10/23 15:39:26;;;;;;;;;;;;;;;6.12;100.00;98822.97;5034959;28;19917;-94
2022/10/23 15:44:27;;;;;;;;;;;;;;;6.13;100.00;98828.16;5487838;23;19971;-95
2022/10/23 15:46:52;;;;;;;;;;;;;;;6.13;100.00;98824.69;5036682;28;20368;-93
2022/10/23 15:49:18;;;;;;;;;;;;;;;6.11;100.00;98818.59;5034622;28;19920;-91
2022/10/23 15:51:43;;;;;;;;;;;;;;;6.18;100.00;98809.56;5034807;28;19923;-91
2022/10/23 15:54:11;;;;;;;;;;;;;;;6.10;100.00;98814.28;5033029;28;19921;-94
2022/10/23 15:56:40;;;;;;;;;;;;;;;6.11;100.00;98810.72;5038294;28;19921;-94
2022/10/23 15:59:05;;;;;;;;;;;;;;;6.03;100.00;98810.16;5037595;28;19917;-93
2022/10/23 16:01:30;;;;;;;;;;;;;;;6.02;100.00;98808.47;5037058;28;19996;-90
2022/10/23 16:03:56;;;;;;;;;;;;;;;6.05;100.00;98816.22;5036868;28;19921;-92
2022/10/23 16:11:26;;;;;;;;;;;;;;;6.00;100.00;98840.94;5050913;23;19991;-91
2022/10/23 16:13:53;;;;;;;;;;;;;;;6.03;100.00;98845.22;5044840;28;19944;-96
2022/10/23 16:16:18;;;;;;;;;;;;;;;6.00;100.00;98843.56;5039755;28;20292;-95
2022/10/23 16:21:48;;;;;;;;;;;;;;;6.00;100.00;98861.13;5132922;23;19997;-92
2022/10/23 16:24:14;;;;;;;;;;;;;;;6.01;100.00;98857.56;5029429;28;19917;-92
2022/10/23 16:26:39;;;;;;;;;;;;;;;5.92;100.00;98866.66;5029257;28;19924;-94
2022/10/23 16:29:06;;;;;;;;;;;;;;;5.96;100.00;98867.38;5029484;28;19921;-91
2022/10/23 16:34:28;;;;;;;;;;;;;;;5.99;100.00;98881.28;5044217;28;19920;-96
2022/10/23 16:36:54;;;;;;;;;;;;;;;6.02;100.00;98901.38;5032459;28;19917;-95
2022/10/23 16:39:20;;;;;;;;;;;;;;;5.96;100.00;98912.97;5035660;28;19917;-93
2022/10/23 16:42:10;;;;;;;;;;;;;;;6.02;100.00;98937.34;5040696;28;20340;-92
2022/10/23 16:44:35;;;;;;;;;;;;;;;6.03;100.00;98939.03;5040096;28;19921;-95
2022/10/23 16:47:06;;;;;;;;;;;;;;;6.04;100.00;98962.66;5026069;28;20845;-90
2022/10/23 16:49:31;;;;;;;;;;;;;;;6.03;100.00;99002.16;5029204;28;19922;-94
2022/10/23 16:51:57;;;;;;;;;;;;;;;6.34;100.00;98992.19;5031296;28;19979;-93
2022/10/23 16:54:22;;;;;;;;;;;;;;;6.24;100.00;98988.22;5033837;23;19979;-95
2022/10/23 16:56:47;;;;;;;;;;;;;;;6.17;100.00;98969.19;5037408;28;19967;-93
2022/10/23 16:59:15;;;;;;;;;;;;;;;6.03;100.00;98967.97;5048135;28;20041;-96
2022/10/23 17:01:47;;;;;;;;;;;;;;;6.03;100.00;98954.81;5033589;28;19940;-95
2022/10/23 17:04:14;;;;;;;;;;;;;;;5.96;100.00;98923.47;5024808;28;19917;-95
2022/10/23 17:06:43;;;;;;;;;;;;;;;5.92;100.00;98892.94;5030358;28;19917;-92
2022/10/23 17:09:08;;;;;;;;;;;;;;;5.88;100.00;98862.41;5040725;28;20409;-95
2022/10/23 17:12:06;;;;;;;;;;;;;;;;;;;;;
2022/10/23 17:14:23;;;;;;;;;;;;;;;5.85;100.00;98873.03;5044056;23;19932;-93
2022/10/23 17:16:50;;;;;;;;;;;;;;;5.90;100.00;98875.50;5036960;28;19925;-89
2022/10/23 17:19:16;;;;;;;;;;;;;;;5.93;100.00;98875.38;5029276;28;19928;-90
2022/10/23 17:21:42;;;;;;;;;;;;;;;5.93;100.00;98867.50;5032149;28;19962;-92
2022/10/23 17:24:08;;;;;;;;;;;;;;;5.89;100.00;98877.28;5032414;28;19929;-93
2022/10/23 17:26:34;;;;;;;;;;;;;;;5.89;100.00;98886.91;5031706;28;19917;-92
2022/10/23 17:29:20;;;;;;;;;;;;;;;5.89;100.00;98886.91;5051622;28;19994;-91
2022/10/23 17:34:59;;;;;;;;;;;;;;;5.90;100.00;98886.00;4106202;26;19979;-95
2022/10/23 17:37:24;;;;;;;;;;;;;;;5.96;100.00;98880.53;5072412;23;19934;-91
2022/10/23 17:39:49;;;;;;;;;;;;;;;5.91;100.00;98878.06;5023326;28;19922;-94
2022/10/23 17:42:15;;;;;;;;;;;;;;;5.92;100.00;98878.91;5003527;28;19944;-92
2022/10/23 17:44:40;;;;;;;;;;;;;;;5.86;100.00;98879.19;5023440;28;19925;-90
2022/10/23 17:47:05;;;;;;;;;;;;;;;5.89;100.00;98895.69;5021021;28;20008;-93
2022/10/23 17:49:30;;;;;;;;;;;;;;;5.97;100.00;98888.38;5025471;28;20001;-88
2022/10/23 17:52:33;;;;;;;;;;;;;;;6.03;100.00;98894.31;5004585;28;20292;-91
2022/10/23 17:54:58;;;;;;;;;;;;;;;5.96;100.00;98891.91;5023370;28;20372;-90
2022/10/23 17:57:52;;;;;;;;;;;;;;;5.97;100.00;98898.91;5022660;28;19925;-91
2022/10/23 18:00:22;;;;;;;;;;;;;;;6.03;100.00;98907.47;5023829;28;20327;-92
2022/10/23 18:02:48;;;;;;;;;;;;;;;5.91;100.00;98909.63;5024403;22;19934;-94
2022/10/23 18:05:13;;;;;;;;;;;;;;;5.86;100.00;98927.34;5007140;28;19968;-94
2022/10/23 18:08:13;;;;;;;;;;;;;;;5.81;100.00;98934.56;4993793;28;19917;-90
2022/10/23 18:10:39;;;;;;;;;;;;;;;5.84;100.00;98931.81;5010057;28;19948;-89
2022/10/23 18:13:04;;;;;;;;;;;;;;;5.90;100.00;98936.81;4995302;28;20365;-94
2022/10/23 18:15:32;;;;;;;;;;;;;;;5.85;100.00;98936.13;5006155;28;20004;-91
2022/10/23 18:18:06;;;;;;;;;;;;;;;5.80;100.00;98946.81;4991582;28;20710;-90
2022/10/23 18:20:32;;;;;;;;;;;;;;;5.86;100.00;98956.28;5015983;28;20385;-89
2022/10/23 18:22:57;;;;;;;;;;;;;;;5.91;100.00;98956.94;5010976;28;19914;-90
2022/10/23 18:25:22;;;;;;;;;;;;;;;5.81;100.00;98963.47;5003004;28;19917;-89
2022/10/23 18:27:49;;;;;;;;;;;;;;;5.77;100.00;98956.59;4994477;23;19933;-94
2022/10/23 18:30:19;;;;;;;;;;;;;;;5.90;100.00;98955.22;5014989;28;20272;-89
2022/10/23 18:32:45;;;;;;;;;;;;;;;5.89;100.00;98957.91;5012617;28;19921;-91
2022/10/23 18:35:10;;;;;;;;;;;;;;;5.90;100.00;98955.22;4994891;28;19921;-91
2022/10/23 18:37:35;;;;;;;;;;;;;;;5.84;100.00;98955.47;4993576;28;19924;-93
2022/10/23 18:40:01;;;;;;;;;;;;;;;5.83;100.00;98954.59;5012865;28;20412;-91
2022/10/23 18:42:26;;;;;;;;;;;;;;;5.84;100.00;98958.09;5013870;28;20336;-88
2022/10/23 18:44:54;;;;;;;;;;;;;;;5.79;100.00;98962.66;5013162;28;19922;-92
2022/10/23 18:47:19;;;;;;;;;;;;;;;5.85;100.00;98962.44;5012225;28;19926;-88
2022/10/23 18:49:45;;;;;;;;;;;;;;;5.87;100.00;98946.59;5014681;28;19917;-95
2022/10/23 18:52:13;;;;;;;;;;;;;;;5.87;100.00;98947.47;5002078;28;19936;-94
2022/10/23 18:54:38;;;;;;;;;;;;;;;5.81;100.00;98945.06;5011535;28;19929;-92
2022/10/23 18:57:07;;;;;;;;;;;;;;;5.83;100.00;98944.09;5011850;28;19921;-89
2022/10/23 18:59:32;;;;;;;;;;;;;;;5.93;100.00;98943.75;4993636;28;20424;-91
2022/10/23 19:01:57;;;;;;;;;;;;;;;5.87;100.00;98936.09;5011281;28;20020;-90
2022/10/23 19:04:23;;;;;;;;;;;;;;;5.90;100.00;98941.22;5012270;28;19940;-92
2022/10/23 19:06:48;;;;;;;;;;;;;;;5.82;100.00;98944.13;5011590;28;19921;-93
2022/10/23 19:09:14;;;;;;;;;;;;;;;5.88;100.00;98936.03;5011823;28;20012;-87
2022/10/23 19:11:40;;;;;;;;;;;;;;;5.87;100.00;98947.47;5012067;28;19925;-89
2022/10/23 19:14:05;;;;;;;;;;;;;;;5.77;100.00;98943.47;4994148;28;19960;-91
2022/10/23 19:16:41;;;;;;;;;;;;;;;5.71;100.00;98944.56;4994498;28;19925;-90
2022/10/23 19:19:15;;;;;;;;;;;;;;;5.82;100.00;98946.78;5010392;28;19972;-90
2022/10/23 19:21:41;;;;;;;;;;;;;;;5.76;100.00;98936.47;5011364;28;20434;-93
2022/10/23 19:24:09;;;;;;;;;;;;;;;5.82;100.00;98942.38;4993859;28;19925;-91
2022/10/23 19:26:35;;;;;;;;;;;;;;;5.79;100.00;98936.38;5013013;28;19956;-94
2022/10/23 19:29:01;;;;;;;;;;;;;;;5.70;100.00;98931.47;5012514;28;19922;-92
2022/10/23 19:31:26;;;;;;;;;;;;;;;5.75;100.00;98942.66;5014540;28;20343;-89
2022/10/23 19:33:52;;;;;;;;;;;;;;;5.70;100.00;98936.72;4995279;28;19983;-92
2022/10/23 19:36:18;;;;;;;;;;;;;;;5.74;100.00;98941.78;5015224;28;19925;-95
2022/10/23 19:38:43;;;;;;;;;;;;;;;5.61;100.00;98949.25;4998003;28;19921;-90
2022/10/23 19:41:08;;;;;;;;;;;;;;;5.66;100.00;98940.38;5015224;28;19918;-91
2022/10/23 19:43:34;;;;;;;;;;;;;;;5.66;100.00;98948.25;5015264;28;19917;-94
2022/10/23 19:45:59;;;;;;;;;;;;;;;5.62;100.00;98953.63;5015839;28;19936;-89
2022/10/23 19:48:25;;;;;;;;;;;;;;;5.60;100.00;98947.56;4997018;28;19928;-95
2022/10/23 19:50:50;;;;;;;;;;;;;;;5.59;100.00;98951.09;4999666;28;19917;-90
2022/10/23 19:53:15;;;;;;;;;;;;;;;5.58;100.00;98956.41;4998191;28;19922;-92
2022/10/23 19:55:41;;;;;;;;;;;;;;;5.54;100.00;98965.31;4996939;28;19952;-92
2022/10/23 19:58:06;;;;;;;;;;;;;;;5.57;100.00;98965.22;4998847;28;19925;-93
2022/10/23 20:00:31;;;;;;;;;;;;;;;5.57;100.00;98973.94;4996933;28;19917;-93
2022/10/23 20:02:56;;;;;;;;;;;;;;;5.56;100.00;98971.38;5013813;28;20259;-96
2022/10/23 20:05:22;;;;;;;;;;;;;;;5.50;100.00;98975.06;4998581;28;19917;-92
2022/10/23 20:07:47;;;;;;;;;;;;;;;5.61;100.00;98974.69;5003810;28;19941;-91
2022/10/23 20:10:13;;;;;;;;;;;;;;;5.48;100.00;98976.91;5022746;28;20280;-94
2022/10/23 20:12:38;;;;;;;;;;;;;;;5.53;100.00;98980.22;5019706;28;19918;-92
2022/10/23 20:15:04;;;;;;;;;;;;;;;5.55;100.00;98978.41;5025539;23;19925;-94
2022/10/23 20:17:30;;;;;;;;;;;;;;;5.66;100.00;98987.69;4998591;28;19921;-92
2022/10/23 20:19:55;;;;;;;;;;;;;;;5.52;100.00;98996.91;5013688;28;19921;-88
2022/10/23 20:22:20;;;;;;;;;;;;;;;5.58;100.00;99001.94;4997098;28;19918;-91
2022/10/23 20:24:46;;;;;;;;;;;;;;;5.60;100.00;99010.63;5012707;28;19925;-93
2022/10/23 20:27:13;;;;;;;;;;;;;;;5.57;100.00;99010.75;5009307;28;19925;-90
2022/10/23 20:29:38;;;;;;;;;;;;;;;5.59;100.00;99019.44;5014151;28;20304;-88
2022/10/23 20:32:05;;;;;;;;;;;;;;;5.59;100.00;99011.53;4996568;28;19917;-90
2022/10/23 20:34:30;;;;;;;;;;;;;;;5.57;100.00;99016.00;4995285;28;20005;-90
2022/10/23 20:36:55;;;;;;;;;;;;;;;5.58;100.00;99017.69;5014272;28;20339;-88
2022/10/23 20:39:24;;;;;;;;;;;;;;;5.53;100.00;99022.25;4996432;28;19945;-89
2022/10/23 20:41:49;;;;;;;;;;;;;;;5.57;100.00;99020.41;4996046;28;19927;-90
2022/10/23 20:44:15;;;;;;;;;;;;;;;5.64;100.00;99022.75;4996472;28;20343;-91
2022/10/23 20:46:41;;;;;;;;;;;;;;;5.77;100.00;99011.81;5013856;28;19921;-91
2022/10/23 20:49:06;;;;;;;;;;;;;;;5.67;100.00;99020.94;5013293;28;19924;-91
2022/10/23 20:51:32;;;;;;;;;;;;;;;5.59;100.00;99019.44;4996514;28;19917;-90
2022/10/23 20:53:59;;;;;;;;;;;;;;;5.49;100.00;99015.41;4996921;28;20012;-88
2022/10/23 20:56:29;;;;;;;;;;;;;;;5.46;100.00;99023.41;5013732;28;19917;-91
2022/10/23 20:59:02;;;;;;;;;;;;;;;5.44;100.00;99017.31;5013761;28;20357;-91
2022/10/23 21:01:29;;;;;;;;;;;;;;;5.54;100.00;99015.25;5013569;28;19917;-88
2022/10/23 21:03:55;;;;;;;;;;;;;;;5.48;100.00;99018.94;4995696;28;19922;-88
2022/10/23 21:06:21;;;;;;;;;;;;;;;5.44;100.00;99009.44;4995927;28;20460;-88
2022/10/23 21:08:46;;;;;;;;;;;;;;;5.47;100.00;99019.84;4995513;28;20008;-90
2022/10/23 21:11:13;;;;;;;;;;;;;;;5.44;100.00;99020.81;4995867;28;20290;-90
2022/10/23 21:13:38;;;;;;;;;;;;;;;5.51;100.00;99024.09;4986648;28;19929;-90
2022/10/23 21:16:11;;;;;;;;;;;;;;;5.52;100.00;99020.56;4986833;28;20381;-89
2022/10/23 21:18:36;;;;;;;;;;;;;;;5.51;100.00;99020.63;4985239;28;19922;-90
2022/10/23 21:21:02;;;;;;;;;;;;;;;5.49;100.00;99018.03;4985482;28;20017;-90
2022/10/23 21:23:27;;;;;;;;;;;;;;;5.52;100.00;99023.19;4985833;28;19917;-90
2022/10/23 21:25:52;;;;;;;;;;;;;;;5.49;100.00;99025.94;4984950;28;19922;-89
2022/10/23 21:28:18;;;;;;;;;;;;;;;5.48;100.00;99021.56;5003199;28;20400;-89
2022/10/23 21:30:43;;;;;;;;;;;;;;;5.42;100.00;99027.03;4985147;28;20270;-88
2022/10/23 21:33:09;;;;;;;;;;;;;;;5.48;100.00;99024.19;5002030;28;19917;-90
2022/10/23 21:35:34;;;;;;;;;;;;;;;5.52;100.00;99031.06;4986196;28;20372;-90
2022/10/23 21:37:59;;;;;;;;;;;;;;;5.46;100.00;99020.78;4984392;28;20020;-89
2022/10/23 21:40:25;;;;;;;;;;;;;;;5.47;100.00;99027.72;4985595;28;20000;-89
2022/10/23 21:42:50;;;;;;;;;;;;;;;5.48;100.00;99020.72;4985681;28;19929;-92
